Time;durP1;ratioP1;P1;durP2;ratioP2;P2;SDS_P1;SDS_P2;PMS_P1;PMS_P2;Temp;Humidity;BMP_temperature;BMP_pressure;BME280_temperature;BME280_humidity;BME280_pressure;Samples;Min_cycle;Max_cycle;Signal;HPM_P1;HPM_P2
2022/08/03 00:01:15;;;;;;;;;;;25.00;99.90;;;;;;5083770;28;20301;-71
2022/08/03 00:03:40;;;;;;;;;;;25.00;99.90;;;;;;5083611;28;20369;-71
2022/08/03 00:06:06;;;;;;;;;;;25.00;99.90;;;;;;5083410;28;19948;-71
2022/08/03 00:08:32;;;;;;;;;;;24.80;99.90;;;;;;5086596;28;20344;-70
2022/08/03 00:10:58;;;;;;;;;;;24.80;99.90;;;;;;5083355;28;19919;-72
2022/08/03 00:13:24;;;;;;;;;;;24.80;99.90;;;;;;5085875;28;19938;-71
2022/08/03 00:15:50;;;;;;;;;;;24.80;99.90;;;;;;5079212;28;20324;-72
2022/08/03 00:18:15;;;;;;;;;;;24.80;99.90;;;;;;5099444;28;19944;-73
2022/08/03 00:20:41;;;;;;;;;;;24.80;99.90;;;;;;5096503;28;19997;-72
2022/08/03 00:23:07;;;;;;;;;;;24.80;99.90;;;;;;5079446;28;20509;-72
2022/08/03 00:25:33;;;;;;;;;;;24.80;99.90;;;;;;5080877;28;19932;-72
2022/08/03 00:27:59;;;;;;;;;;;24.90;99.90;;;;;;5080971;28;19919;-73
2022/08/03 00:30:24;;;;;;;;;;;24.90;99.90;;;;;;5082394;28;20601;-72
2022/08/03 00:32:50;;;;;;;;;;;25.00;99.90;;;;;;5081064;28;19916;-72
2022/08/03 00:35:15;;;;;;;;;;;25.00;99.90;;;;;;5081154;28;19979;-72
2022/08/03 00:37:41;;;;;;;;;;;25.10;99.90;;;;;;5076148;28;20342;-73
2022/08/03 00:40:07;;;;;;;;;;;25.20;99.90;;;;;;5082329;28;19912;-72
2022/08/03 00:42:32;;;;;;;;;;;25.20;99.90;;;;;;5076388;28;20242;-72
2022/08/03 00:44:58;;;;;;;;;;;25.30;99.90;;;;;;5077559;28;19916;-71
2022/08/03 00:47:23;;;;;;;;;;;25.40;99.90;;;;;;5081224;28;20367;-72
2022/08/03 00:49:49;;;;;;;;;;;25.40;99.90;;;;;;5080174;28;19913;-70
2022/08/03 00:52:16;;;;;;;;;;;25.30;99.90;;;;;;5083545;28;19920;-71
2022/08/03 00:54:41;;;;;;;;;;;25.40;99.90;;;;;;5080073;28;19912;-71
2022/08/03 00:57:07;;;;;;;;;;;25.40;99.90;;;;;;5080706;28;19919;-71
2022/08/03 00:59:33;;;;;;;;;;;25.40;99.90;;;;;;5079378;28;19912;-71
2022/08/03 01:01:59;;;;;;;;;;;25.40;99.90;;;;;;5062743;28;19927;-69
2022/08/03 01:04:24;;;;;;;;;;;25.40;99.90;;;;;;5077787;28;20015;-72
2022/08/03 01:06:56;;;;;;;;;;;25.40;99.90;;;;;;5081433;28;20124;-69
2022/08/03 01:09:24;;;;;;;;;;;25.40;99.90;;;;;;5081079;28;21748;-73
2022/08/03 01:11:55;;;;;;;;;;;25.40;99.90;;;;;;5083398;28;19951;-74
2022/08/03 01:14:28;;;;;;;;;;;25.30;99.90;;;;;;5078612;28;19959;-72
2022/08/03 01:17:00;;;;;;;;;;;25.30;99.90;;;;;;5080848;28;19912;-72
2022/08/03 01:19:41;;;;;;;;;;;25.30;99.90;;;;;;5078912;28;19987;-69
2022/08/03 01:22:22;;;;;;;;;;;25.30;99.90;;;;;;5081145;28;19930;-68
2022/08/03 01:24:59;;;;;;;;;;;25.30;99.90;;;;;;5083642;28;19912;-69
2022/08/03 01:27:29;;;;;;;;;;;25.30;99.90;;;;;;5080222;28;19924;-71
2022/08/03 01:29:55;;;;;;;;;;;25.40;99.90;;;;;;5083527;28;19959;-70
2022/08/03 01:32:24;;;;;;;;;;;25.40;99.90;;;;;;5081845;28;19967;-70
2022/08/03 01:34:56;;;;;;;;;;;25.30;99.90;;;;;;5084228;28;20309;-71
2022/08/03 01:37:24;;;;;;;;;;;25.30;99.90;;;;;;5081305;28;19913;-70
2022/08/03 01:39:52;;;;;;;;;;;25.30;99.90;;;;;;5068849;28;19986;-70
2022/08/03 01:42:18;;;;;;;;;;;25.30;99.90;;;;;;5081794;28;19912;-70
2022/08/03 01:44:47;;;;;;;;;;;25.20;99.90;;;;;;5082325;28;19923;-69
2022/08/03 01:47:14;;;;;;;;;;;25.10;99.90;;;;;;5098025;27;19920;-70
2022/08/03 01:49:43;;;;;;;;;;;25.00;99.90;;;;;;5079232;28;19916;-69
2022/08/03 01:52:09;;;;;;;;;;;24.80;99.90;;;;;;5083531;28;19920;-71
2022/08/03 01:54:39;;;;;;;;;;;24.60;99.90;;;;;;5082441;28;19912;-72
2022/08/03 01:57:05;;;;;;;;;;;24.60;99.90;;;;;;5083821;28;20022;-69
2022/08/03 01:59:33;;;;;;;;;;;24.60;99.90;;;;;;5084635;28;19923;-71
2022/08/03 02:01:59;;;;;;;;;;;24.60;99.90;;;;;;5089399;28;19912;-70
2022/08/03 02:04:26;;;;;;;;;;;24.40;99.90;;;;;;5090584;28;20393;-69
2022/08/03 02:06:52;;;;;;;;;;;24.40;99.90;;;;;;5089931;28;20004;-68
2022/08/03 02:09:19;;;;;;;;;;;24.40;99.90;;;;;;5087316;28;19916;-70
2022/08/03 02:11:45;;;;;;;;;;;24.40;99.90;;;;;;5089456;28;19922;-70
2022/08/03 02:14:13;;;;;;;;;;;24.50;99.90;;;;;;5109641;28;19920;-70
2022/08/03 02:16:38;;;;;;;;;;;24.50;99.90;;;;;;5088417;28;19928;-70
2022/08/03 02:19:06;;;;;;;;;;;24.50;99.90;;;;;;5080827;28;19928;-70
2022/08/03 02:21:32;;;;;;;;;;;24.50;99.90;;;;;;5079883;28;19921;-70
2022/08/03 02:23:58;;;;;;;;;;;24.60;99.90;;;;;;5082687;28;20393;-72
2022/08/03 02:26:27;;;;;;;;;;;24.80;99.90;;;;;;5082121;28;19939;-72
2022/08/03 02:28:54;;;;;;;;;;;24.90;99.90;;;;;;5083997;28;19916;-71
2022/08/03 02:31:22;;;;;;;;;;;25.00;99.90;;;;;;5066784;28;19920;-70
2022/08/03 02:33:49;;;;;;;;;;;25.00;99.90;;;;;;5082047;28;19913;-68
2022/08/03 02:36:15;;;;;;;;;;;25.00;99.90;;;;;;5084846;28;19920;-69
2022/08/03 02:38:42;;;;;;;;;;;25.10;99.90;;;;;;5083503;28;19966;-69
2022/08/03 02:41:20;;;;;;;;;;;25.10;99.90;;;;;;5080212;28;19912;-68
2022/08/03 02:43:48;;;;;;;;;;;25.00;99.90;;;;;;5083749;28;19955;-71
2022/08/03 02:46:16;;;;;;;;;;;25.00;99.90;;;;;;5067848;28;19924;-68
2022/08/03 02:48:42;;;;;;;;;;;24.80;99.90;;;;;;5081349;28;19912;-69
2022/08/03 02:51:08;;;;;;;;;;;24.70;99.90;;;;;;5077959;28;19912;-68
2022/08/03 02:53:33;;;;;;;;;;;24.70;99.90;;;;;;5082030;28;19959;-71
2022/08/03 02:56:00;;;;;;;;;;;24.60;99.90;;;;;;5077528;28;19973;-70
2022/08/03 02:58:26;;;;;;;;;;;24.50;99.90;;;;;;5087170;28;20308;-72
2022/08/03 03:00:52;;;;;;;;;;;24.50;99.90;;;;;;5089436;28;19919;-70
2022/08/03 03:03:18;;;;;;;;;;;24.40;99.90;;;;;;5080210;28;20385;-70
2022/08/03 03:05:44;;;;;;;;;;;24.30;99.90;;;;;;5082890;28;19943;-71
2022/08/03 03:08:20;;;;;;;;;;;24.30;99.90;;;;;;5077550;28;20396;-69
2022/08/03 03:10:46;;;;;;;;;;;24.30;99.90;;;;;;5079086;28;19916;-69
2022/08/03 03:13:14;;;;;;;;;;;24.30;99.90;;;;;;5081403;28;20038;-70
2022/08/03 03:15:39;;;;;;;;;;;24.30;99.90;;;;;;5080285;28;19947;-68
2022/08/03 03:18:06;;;;;;;;;;;24.30;99.90;;;;;;5080092;28;20009;-72
2022/08/03 03:20:34;;;;;;;;;;;24.30;99.90;;;;;;5077503;28;19912;-69
2022/08/03 03:23:00;;;;;;;;;;;24.40;99.90;;;;;;5079228;28;19924;-70
2022/08/03 03:25:26;;;;;;;;;;;24.60;99.90;;;;;;5078039;28;20807;-70
2022/08/03 03:27:52;;;;;;;;;;;24.60;99.90;;;;;;5082664;28;20034;-71
2022/08/03 03:30:18;;;;;;;;;;;24.70;99.90;;;;;;5081114;28;19995;-69
2022/08/03 03:32:43;;;;;;;;;;;24.60;99.90;;;;;;5082572;28;19974;-69
2022/08/03 03:35:10;;;;;;;;;;;24.70;99.90;;;;;;5076521;28;19955;-69
2022/08/03 03:37:35;;;;;;;;;;;24.70;99.90;;;;;;5080745;28;20360;-71
2022/08/03 03:40:02;;;;;;;;;;;24.80;99.90;;;;;;5081393;28;19912;-71
2022/08/03 03:42:29;;;;;;;;;;;24.80;99.90;;;;;;5079935;28;19916;-70
2022/08/03 03:44:54;;;;;;;;;;;24.80;99.90;;;;;;5079672;28;19990;-70
2022/08/03 03:47:20;;;;;;;;;;;24.80;99.90;;;;;;5079130;28;19916;-72
2022/08/03 03:49:46;;;;;;;;;;;24.80;99.90;;;;;;5079552;28;19912;-70
2022/08/03 03:52:11;;;;;;;;;;;24.80;99.90;;;;;;5104712;27;20004;-70
2022/08/03 03:54:41;;;;;;;;;;;24.90;99.90;;;;;;5079107;28;19912;-69
2022/08/03 03:57:06;;;;;;;;;;;24.90;99.90;;;;;;5081514;28;19916;-69
2022/08/03 03:59:32;;;;;;;;;;;24.90;99.90;;;;;;5079813;28;19920;-75
2022/08/03 04:01:58;;;;;;;;;;;24.80;99.90;;;;;;5096196;28;19958;-76
2022/08/03 04:12:39;;;;;;;;;;;24.80;99.90;;;;;;5091042;28;20004;-76
2022/08/03 04:15:05;;;;;;;;;;;24.80;99.90;;;;;;5086156;28;19995;-77
2022/08/03 04:17:31;;;;;;;;;;;24.90;99.90;;;;;;5082753;28;19927;-76
2022/08/03 04:19:57;;;;;;;;;;;24.90;99.90;;;;;;5089511;28;19912;-75
2022/08/03 04:22:24;;;;;;;;;;;24.90;99.90;;;;;;5089077;28;19916;-75
2022/08/03 04:24:52;;;;;;;;;;;25.00;99.90;;;;;;5080268;28;19945;-76
2022/08/03 04:27:22;;;;;;;;;;;25.00;99.90;;;;;;5086701;28;19951;-75
2022/08/03 04:29:49;;;;;;;;;;;25.00;99.90;;;;;;5070231;28;19943;-76
2022/08/03 04:32:15;;;;;;;;;;;25.00;99.90;;;;;;5070473;28;20011;-77
2022/08/03 04:34:41;;;;;;;;;;;25.10;99.90;;;;;;5084269;28;19928;-75
2022/08/03 04:37:11;;;;;;;;;;;25.10;99.90;;;;;;5090112;28;19908;-76
2022/08/03 04:39:37;;;;;;;;;;;25.20;99.90;;;;;;5069581;28;20321;-76
2022/08/03 04:42:05;;;;;;;;;;;25.10;99.90;;;;;;5084061;28;19911;-75
2022/08/03 04:44:34;;;;;;;;;;;25.10;99.90;;;;;;5087299;28;19965;-75
2022/08/03 04:47:00;;;;;;;;;;;25.10;99.90;;;;;;5090223;28;19917;-77
2022/08/03 04:49:26;;;;;;;;;;;25.00;99.90;;;;;;5109083;28;19927;-75
2022/08/03 04:51:52;;;;;;;;;;;25.00;99.90;;;;;;5103888;28;20007;-76
2022/08/03 04:54:17;;;;;;;;;;;25.00;99.90;;;;;;5112351;28;19991;-75
2022/08/03 04:56:43;;;;;;;;;;;24.90;99.90;;;;;;5111898;28;19908;-76
2022/08/03 04:59:09;;;;;;;;;;;24.90;99.90;;;;;;5093765;28;20000;-75
2022/08/03 05:01:35;;;;;;;;;;;24.90;99.90;;;;;;5108680;28;19916;-76
2022/08/03 05:04:00;;;;;;;;;;;24.90;99.90;;;;;;5090884;28;19957;-76
2022/08/03 05:06:26;;;;;;;;;;;24.90;99.90;;;;;;5083087;28;19916;-76
2022/08/03 05:08:51;;;;;;;;;;;25.00;99.90;;;;;;5088959;28;19912;-75
2022/08/03 05:11:17;;;;;;;;;;;24.90;99.90;;;;;;5087521;28;20388;-76
2022/08/03 05:13:43;;;;;;;;;;;24.80;99.90;;;;;;5071721;28;20007;-78
2022/08/03 05:16:09;;;;;;;;;;;24.80;99.90;;;;;;5085288;28;19965;-76
2022/08/03 05:18:35;;;;;;;;;;;24.80;99.90;;;;;;5077919;28;19970;-75
2022/08/03 05:21:00;;;;;;;;;;;24.80;99.90;;;;;;5096261;28;19912;-75
2022/08/03 05:23:33;;;;;;;;;;;24.80;99.90;;;;;;5081261;28;19956;-76
2022/08/03 05:25:59;;;;;;;;;;;24.90;99.90;;;;;;5082055;28;20031;-76
2022/08/03 05:28:24;;;;;;;;;;;25.00;99.90;;;;;;5078814;28;19917;-77
2022/08/03 05:30:50;;;;;;;;;;;25.10;99.90;;;;;;5079303;28;19927;-77
2022/08/03 05:33:16;;;;;;;;;;;25.10;99.90;;;;;;5090427;28;19920;-75
2022/08/03 05:35:41;;;;;;;;;;;25.20;99.90;;;;;;5080667;28;20021;-75
2022/08/03 05:38:07;;;;;;;;;;;25.30;99.90;;;;;;5085972;28;19920;-76
2022/08/03 05:40:33;;;;;;;;;;;25.40;99.90;;;;;;5078797;28;20373;-75
2022/08/03 05:42:58;;;;;;;;;;;25.40;99.90;;;;;;5081046;28;19982;-76
2022/08/03 05:45:24;;;;;;;;;;;25.50;99.90;;;;;;5073788;28;20138;-76
2022/08/03 05:47:50;;;;;;;;;;;25.50;99.90;;;;;;5085973;28;19939;-76
2022/08/03 05:50:16;;;;;;;;;;;25.50;99.90;;;;;;5083128;28;19913;-78
2022/08/03 05:52:42;;;;;;;;;;;25.60;99.90;;;;;;5085834;28;19920;-77
2022/08/03 05:55:09;;;;;;;;;;;25.70;99.90;;;;;;5090500;28;19966;-76
2022/08/03 05:57:34;;;;;;;;;;;25.70;99.90;;;;;;5089692;28;20440;-76
2022/08/03 06:00:02;;;;;;;;;;;25.80;99.90;;;;;;5089292;28;19913;-77
2022/08/03 06:02:28;;;;;;;;;;;25.90;99.90;;;;;;5085360;28;19919;-77
2022/08/03 06:04:53;;;;;;;;;;;25.90;99.90;;;;;;5085829;28;19955;-76
2022/08/03 06:07:19;;;;;;;;;;;25.90;99.90;;;;;;5089705;28;19923;-76
2022/08/03 06:09:45;;;;;;;;;;;26.00;99.90;;;;;;5092434;28;19920;-76
2022/08/03 06:12:10;;;;;;;;;;;26.10;99.90;;;;;;5094706;28;19957;-78
2022/08/03 06:14:36;;;;;;;;;;;26.20;99.90;;;;;;5100208;28;19992;-76
2022/08/03 06:17:02;;;;;;;;;;;26.30;99.90;;;;;;5098188;28;19912;-77
2022/08/03 06:19:27;;;;;;;;;;;26.40;99.90;;;;;;5116086;28;20398;-77
2022/08/03 06:21:53;;;;;;;;;;;26.50;99.90;;;;;;5107664;28;19919;-76
2022/08/03 06:24:18;;;;;;;;;;;26.60;99.90;;;;;;5095880;28;19915;-77
2022/08/03 06:26:44;;;;;;;;;;;26.60;99.90;;;;;;5105553;28;19923;-76
2022/08/03 06:29:10;;;;;;;;;;;26.60;99.90;;;;;;5093462;28;19918;-76
2022/08/03 06:31:35;;;;;;;;;;;26.70;99.90;;;;;;5074499;28;19998;-78
2022/08/03 06:34:02;;;;;;;;;;;26.80;99.90;;;;;;5113139;28;19908;-76
2022/08/03 06:36:30;;;;;;;;;;;27.00;99.90;;;;;;5080361;28;19911;-76
2022/08/03 06:38:58;;;;;;;;;;;27.10;99.90;;;;;;5110733;28;20015;-78
2022/08/03 06:41:25;;;;;;;;;;;27.20;99.90;;;;;;5114767;28;19923;-76
2022/08/03 06:43:50;;;;;;;;;;;27.30;99.90;;;;;;5119677;28;19912;-76
2022/08/03 06:46:16;;;;;;;;;;;27.30;99.90;;;;;;5105879;28;20304;-77
2022/08/03 06:48:42;;;;;;;;;;;27.40;99.90;;;;;;5100209;28;19939;-75
2022/08/03 06:51:07;;;;;;;;;;;27.50;99.90;;;;;;5096857;28;19912;-77
2022/08/03 06:53:33;;;;;;;;;;;27.50;99.90;;;;;;5101686;28;20360;-77
2022/08/03 06:55:59;;;;;;;;;;;27.60;99.90;;;;;;5096700;28;19953;-77
2022/08/03 06:58:24;;;;;;;;;;;27.80;99.90;;;;;;5102639;28;20325;-77
2022/08/03 07:00:50;;;;;;;;;;;27.90;99.90;;;;;;5107969;28;19992;-77
2022/08/03 07:03:16;;;;;;;;;;;27.90;99.90;;;;;;5092771;28;19947;-76
2022/08/03 07:05:42;;;;;;;;;;;28.00;99.90;;;;;;5099009;28;20392;-77
2022/08/03 07:08:08;;;;;;;;;;;28.00;99.90;;;;;;5110291;28;19900;-77
2022/08/03 07:10:33;;;;;;;;;;;28.00;99.90;;;;;;5109336;28;20349;-78
2022/08/03 07:12:59;;;;;;;;;;;28.00;99.90;;;;;;5100470;28;19924;-76
2022/08/03 07:15:25;;;;;;;;;;;28.10;99.90;;;;;;5109440;28;19951;-76
2022/08/03 07:17:50;;;;;;;;;;;28.10;99.90;;;;;;5099029;28;19957;-78
2022/08/03 07:20:17;;;;;;;;;;;28.20;99.90;;;;;;5072438;28;19912;-77
2022/08/03 07:22:43;;;;;;;;;;;28.30;99.90;;;;;;5093375;28;19955;-76
2022/08/03 07:25:09;;;;;;;;;;;28.50;99.90;;;;;;5091883;28;19912;-78
2022/08/03 07:27:34;;;;;;;;;;;28.60;99.90;;;;;;5092169;28;19920;-77
2022/08/03 07:30:00;;;;;;;;;;;28.60;99.90;;;;;;5078178;28;20511;-77
2022/08/03 07:32:27;;;;;;;;;;;28.70;99.90;;;;;;5097568;28;19908;-77
2022/08/03 07:34:52;;;;;;;;;;;28.90;99.90;;;;;;5103062;28;19911;-77
2022/08/03 07:37:18;;;;;;;;;;;29.00;99.90;;;;;;5112588;28;19957;-77
2022/08/03 07:39:44;;;;;;;;;;;29.00;99.90;;;;;;5123338;28;19934;-77
2022/08/03 07:42:09;;;;;;;;;;;29.00;99.90;;;;;;5128266;28;19934;-77
2022/08/03 07:44:35;;;;;;;;;;;29.00;99.90;;;;;;5092987;28;19916;-78
2022/08/03 07:47:01;;;;;;;;;;;29.00;99.90;;;;;;5109086;28;20276;-78
2022/08/03 07:49:26;;;;;;;;;;;29.10;99.90;;;;;;5115885;28;19954;-76
2022/08/03 07:54:55;;;;;;;;;;;29.20;99.90;;;;;;5065885;28;19938;-77
2022/08/03 07:57:21;;;;;;;;;;;29.40;99.90;;;;;;5069737;28;19912;-77
2022/08/03 07:59:47;;;;;;;;;;;29.30;99.90;;;;;;5080519;28;19912;-77
2022/08/03 08:02:13;;;;;;;;;;;29.20;99.90;;;;;;5081252;28;19936;-76
2022/08/03 08:04:39;;;;;;;;;;;29.30;99.90;;;;;;5106903;28;19908;-77
2022/08/03 08:07:04;;;;;;;;;;;29.30;99.90;;;;;;5091913;28;19916;-76
2022/08/03 08:09:30;;;;;;;;;;;29.40;99.90;;;;;;5106472;28;20297;-77
2022/08/03 08:11:55;;;;;;;;;;;29.50;99.90;;;;;;5105936;28;19912;-76
2022/08/03 08:14:21;;;;;;;;;;;29.50;99.90;;;;;;5108113;28;19923;-77
2022/08/03 08:16:48;;;;;;;;;;;29.60;99.90;;;;;;5104933;28;19923;-76
2022/08/03 08:19:15;;;;;;;;;;;29.70;99.90;;;;;;5102803;28;20391;-76
2022/08/03 08:21:41;;;;;;;;;;;29.70;99.90;;;;;;5094528;28;19912;-77
2022/08/03 08:24:07;;;;;;;;;;;29.60;99.90;;;;;;5094105;28;19962;-77
2022/08/03 08:26:32;;;;;;;;;;;29.60;99.90;;;;;;5089207;28;19916;-77
2022/08/03 08:28:58;;;;;;;;;;;29.60;99.90;;;;;;5100229;28;20356;-77
2022/08/03 08:31:23;;;;;;;;;;;29.60;99.90;;;;;;5112916;28;19908;-77
2022/08/03 08:33:49;;;;;;;;;;;29.60;99.90;;;;;;5095137;28;20297;-76
2022/08/03 08:36:15;;;;;;;;;;;29.60;99.90;;;;;;5100288;28;19916;-60
2022/08/03 08:38:41;;;;;;;;;;;29.50;99.90;;;;;;5109510;28;20293;-59
2022/08/03 08:41:07;;;;;;;;;;;29.50;99.90;;;;;;5110993;28;19908;-60
2022/08/03 08:43:33;;;;;;;;;;;29.40;99.90;;;;;;5099328;28;19919;-62
2022/08/03 08:45:59;;;;;;;;;;;29.40;99.90;;;;;;5090246;28;20298;-61
2022/08/03 08:48:26;;;;;;;;;;;29.30;99.90;;;;;;5094438;28;20308;-61
2022/08/03 08:50:53;;;;;;;;;;;29.40;99.90;;;;;;5091484;28;19926;-61
2022/08/03 08:53:19;;;;;;;;;;;29.40;99.90;;;;;;5088632;28;20019;-61
2022/08/03 08:55:46;;;;;;;;;;;29.50;99.90;;;;;;5090162;28;19923;-62
2022/08/03 08:58:13;;;;;;;;;;;29.60;99.90;;;;;;5087971;28;19934;-62
2022/08/03 09:00:38;;;;;;;;;;;29.60;99.90;;;;;;5090791;28;19915;-65
2022/08/03 09:03:04;;;;;;;;;;;29.70;99.90;;;;;;5101588;28;19924;-61
2022/08/03 09:05:33;;;;;;;;;;;29.70;99.90;;;;;;5075303;28;19912;-62
2022/08/03 09:07:58;;;;;;;;;;;29.70;99.90;;;;;;5100608;28;20357;-61
2022/08/03 09:10:24;;;;;;;;;;;29.80;99.90;;;;;;5103847;28;19954;-61
2022/08/03 09:12:50;;;;;;;;;;;29.90;99.90;;;;;;5110690;28;19912;-63
2022/08/03 09:15:16;;;;;;;;;;;30.00;99.90;;;;;;5107031;28;19908;-62
2022/08/03 09:17:42;;;;;;;;;;;30.10;99.90;;;;;;5105655;28;20292;-63
2022/08/03 09:20:08;;;;;;;;;;;30.10;99.90;;;;;;5111099;28;19908;-62
2022/08/03 09:22:34;;;;;;;;;;;30.10;99.90;;;;;;5107546;28;19916;-59
2022/08/03 09:25:02;;;;;;;;;;;29.90;99.90;;;;;;5091368;28;19926;-60
2022/08/03 09:27:28;;;;;;;;;;;29.80;99.90;;;;;;5108329;28;19970;-63
2022/08/03 09:29:54;;;;;;;;;;;30.00;99.90;;;;;;5099005;28;20412;-62
2022/08/03 09:32:21;;;;;;;;;;;30.00;99.90;;;;;;5089401;28;19916;-62
2022/08/03 09:34:48;;;;;;;;;;;30.00;99.90;;;;;;5089446;28;20281;-62
2022/08/03 09:37:17;;;;;;;;;;;30.00;99.90;;;;;;5095721;28;20019;-65
2022/08/03 09:39:44;;;;;;;;;;;30.20;99.90;;;;;;5098086;28;19912;-64
2022/08/03 09:42:10;;;;;;;;;;;30.30;99.90;;;;;;5091351;28;19958;-63
2022/08/03 09:44:43;;;;;;;;;;;30.40;99.90;;;;;;5101696;28;20007;-64
2022/08/03 09:47:09;;;;;;;;;;;30.70;99.90;;;;;;5106633;28;19926;-64
2022/08/03 09:49:35;;;;;;;;;;;30.80;99.90;;;;;;5115455;28;19919;-63
2022/08/03 09:52:11;;;;;;;;;;;30.80;99.90;;;;;;5114989;28;20277;-64
2022/08/03 09:54:37;;;;;;;;;;;30.60;99.90;;;;;;5096105;28;19918;-63
2022/08/03 09:57:02;;;;;;;;;;;30.70;99.90;;;;;;5094874;28;19994;-63
2022/08/03 09:59:29;;;;;;;;;;;30.50;99.90;;;;;;5114845;28;19998;-64
2022/08/03 10:01:55;;;;;;;;;;;30.40;99.90;;;;;;5092968;28;20360;-62
2022/08/03 10:04:21;;;;;;;;;;;30.60;99.90;;;;;;5100968;28;19944;-62
2022/08/03 10:07:05;;;;;;;;;;;30.50;99.90;;;;;;5075994;28;19947;-63
2022/08/03 10:09:31;;;;;;;;;;;30.70;99.90;;;;;;5087879;28;19974;-62
2022/08/03 10:12:05;;;;;;;;;;;31.00;99.90;;;;;;5093798;28;19913;-61
2022/08/03 10:14:31;;;;;;;;;;;31.10;99.90;;;;;;5092335;28;19986;-62
2022/08/03 10:16:56;;;;;;;;;;;31.10;99.90;;;;;;5111750;28;20357;-63
2022/08/03 10:19:24;;;;;;;;;;;31.00;99.90;;;;;;5114855;28;19914;-65
2022/08/03 10:21:53;;;;;;;;;;;31.00;99.90;;;;;;5099290;28;20605;-63
2022/08/03 10:24:23;;;;;;;;;;;31.00;99.90;;;;;;5090880;28;20408;-62
2022/08/03 10:26:49;;;;;;;;;;;31.00;99.90;;;;;;5093413;28;19912;-64
2022/08/03 10:29:19;;;;;;;;;;;30.90;99.90;;;;;;5092692;28;20446;-64
2022/08/03 10:31:46;;;;;;;;;;;31.00;99.90;;;;;;5098551;28;19907;-63
2022/08/03 10:34:21;;;;;;;;;;;30.90;99.90;;;;;;5103923;28;19916;-61
2022/08/03 10:36:48;;;;;;;;;;;31.00;99.90;;;;;;5113945;28;19912;-63
2022/08/03 10:39:17;;;;;;;;;;;31.10;99.90;;;;;;5087984;28;19917;-62
2022/08/03 10:41:45;;;;;;;;;;;31.20;99.90;;;;;;5089047;28;19912;-63
2022/08/03 10:44:19;;;;;;;;;;;31.30;99.90;;;;;;5097358;28;20411;-63
2022/08/03 10:46:46;;;;;;;;;;;31.30;99.90;;;;;;5091481;28;19931;-64
2022/08/03 10:49:13;;;;;;;;;;;31.80;99.90;;;;;;5105263;28;19912;-62
2022/08/03 10:51:40;;;;;;;;;;;31.80;99.90;;;;;;5096719;28;20378;-64
2022/08/03 10:54:05;;;;;;;;;;;32.00;99.90;;;;;;5094264;28;20006;-62
2022/08/03 10:59:16;;;;;;;;;;;31.70;99.90;;;;;;5090936;28;19923;-64
2022/08/03 11:01:49;;;;;;;;;;;31.90;99.90;;;;;;5091030;28;19912;-63
2022/08/03 11:04:16;;;;;;;;;;;32.00;99.90;;;;;;5087487;28;19919;-63
2022/08/03 11:06:41;;;;;;;;;;;32.10;99.90;;;;;;5097360;28;20389;-63
2022/08/03 11:09:10;;;;;;;;;;;32.00;99.90;;;;;;5087697;28;19912;-64
2022/08/03 11:11:36;;;;;;;;;;;31.90;99.90;;;;;;5092646;28;19919;-63
2022/08/03 11:14:02;;;;;;;;;;;31.90;99.90;;;;;;5100178;28;19916;-65
2022/08/03 11:16:29;;;;;;;;;;;31.80;99.90;;;;;;5094559;28;19912;-71
2022/08/03 11:18:58;;;;;;;;;;;31.70;99.90;;;;;;5096234;28;19923;-69
2022/08/03 11:21:42;;;;;;;;;;;31.70;99.90;;;;;;5100875;28;19920;-71
2022/08/03 11:24:07;;;;;;;;;;;31.40;99.90;;;;;;5104690;28;19916;-70
2022/08/03 11:26:33;;;;;;;;;;;30.90;99.90;;;;;;5099645;28;20266;-70
2022/08/03 11:29:17;;;;;;;;;;;30.80;99.90;;;;;;5089870;28;19923;-69
2022/08/03 11:31:44;;;;;;;;;;;30.90;99.90;;;;;;5099936;28;19912;-70
2022/08/03 11:34:10;;;;;;;;;;;30.80;99.90;;;;;;5093202;28;19920;-70
2022/08/03 11:36:54;;;;;;;;;;;30.90;99.90;;;;;;5092410;28;20347;-74
2022/08/03 11:39:20;;;;;;;;;;;30.80;99.90;;;;;;5090153;28;19912;-76
2022/08/03 11:41:46;;;;;;;;;;;30.80;99.90;;;;;;5114221;28;19907;-73
2022/08/03 11:44:31;;;;;;;;;;;30.50;99.90;;;;;;5113249;28;19908;-74
2022/08/03 11:46:58;;;;;;;;;;;30.50;99.90;;;;;;5109994;28;19977;-75
2022/08/03 11:49:23;;;;;;;;;;;30.50;99.90;;;;;;5080838;28;19915;-74
2022/08/03 11:51:52;;;;;;;;;;;30.70;99.90;;;;;;5074504;28;19916;-75
2022/08/03 11:54:18;;;;;;;;;;;30.80;99.90;;;;;;5093542;28;19920;-73
2022/08/03 11:56:48;;;;;;;;;;;30.70;99.90;;;;;;5096219;28;19920;-74
2022/08/03 11:59:16;;;;;;;;;;;30.70;99.90;;;;;;5093780;28;19913;-75
2022/08/03 12:01:42;;;;;;;;;;;30.70;99.90;;;;;;5095721;28;19916;-77
2022/08/03 12:04:09;;;;;;;;;;;30.70;99.90;;;;;;5094505;28;20419;-78
2022/08/03 12:06:53;;;;;;;;;;;30.70;99.90;;;;;;5094227;28;19923;-76
2022/08/03 12:09:19;;;;;;;;;;;30.80;99.90;;;;;;5099309;28;19908;-77
2022/08/03 12:11:51;;;;;;;;;;;31.00;99.90;;;;;;5097014;28;19927;-80
2022/08/03 12:14:18;;;;;;;;;;;31.00;99.90;;;;;;5074554;28;19936;-77
2022/08/03 12:16:47;;;;;;;;;;;31.10;99.90;;;;;;5110575;28;20330;-77
2022/08/03 12:19:13;;;;;;;;;;;31.00;99.90;;;;;;5100071;28;19938;-76
2022/08/03 12:21:48;;;;;;;;;;;30.80;99.90;;;;;;5093568;28;19912;-79
2022/08/03 12:24:14;;;;;;;;;;;30.50;99.90;;;;;;5091201;28;19919;-76
2022/08/03 12:26:43;;;;;;;;;;;30.40;99.90;;;;;;5074193;28;19982;-78
2022/08/03 12:29:15;;;;;;;;;;;30.40;99.90;;;;;;5089839;28;19912;-78
2022/08/03 12:31:41;;;;;;;;;;;30.40;99.90;;;;;;5094936;28;19908;-78
2022/08/03 12:34:08;;;;;;;;;;;30.40;99.90;;;;;;5087459;28;19959;-77
2022/08/03 12:36:34;;;;;;;;;;;30.30;99.90;;;;;;5103101;28;20424;-77
2022/08/03 12:39:04;;;;;;;;;;;30.20;99.90;;;;;;5119337;28;20361;-78
2022/08/03 12:41:49;;;;;;;;;;;30.20;99.90;;;;;;5118917;28;19907;-77
2022/08/03 12:44:15;;;;;;;;;;;30.30;99.90;;;;;;5114676;28;19969;-75
2022/08/03 12:46:41;;;;;;;;;;;30.40;99.90;;;;;;5107223;28;19920;-76
2022/08/03 12:49:14;;;;;;;;;;;30.50;99.90;;;;;;5095298;28;20285;-75
2022/08/03 12:51:42;;;;;;;;;;;30.60;99.90;;;;;;5112487;27;20181;-77
2022/08/03 12:54:21;;;;;;;;;;;30.70;99.90;;;;;;5092065;28;19943;-77
2022/08/03 12:57:04;;;;;;;;;;;30.80;99.90;;;;;;5092413;28;19952;-76
2022/08/03 12:59:34;;;;;;;;;;;30.70;99.90;;;;;;5072906;28;19916;-77
2022/08/03 13:02:00;;;;;;;;;;;30.70;99.90;;;;;;5090041;28;19908;-76
2022/08/03 13:04:26;;;;;;;;;;;30.90;99.90;;;;;;5094475;28;20476;-75
2022/08/03 13:07:02;;;;;;;;;;;31.00;99.90;;;;;;5112535;28;19912;-76
2022/08/03 13:09:28;;;;;;;;;;;31.10;99.90;;;;;;5114119;28;20376;-77
2022/08/03 13:12:07;;;;;;;;;;;31.20;99.90;;;;;;5094922;28;19958;-77
2022/08/03 13:14:32;;;;;;;;;;;31.20;99.90;;;;;;5093571;28;19908;-78
2022/08/03 13:16:58;;;;;;;;;;;31.20;99.90;;;;;;5075594;28;20325;-77
2022/08/03 13:19:23;;;;;;;;;;;31.40;99.90;;;;;;5101599;28;19912;-77
2022/08/03 13:21:49;;;;;;;;;;;31.30;99.90;;;;;;5079569;28;19912;-78
2022/08/03 13:24:15;;;;;;;;;;;31.40;99.90;;;;;;5097577;28;19912;-78
2022/08/03 13:26:40;;;;;;;;;;;31.30;99.90;;;;;;5104655;28;19916;-78
2022/08/03 13:29:06;;;;;;;;;;;31.40;99.90;;;;;;5109542;28;19919;-77
2022/08/03 13:31:32;;;;;;;;;;;31.20;99.90;;;;;;5103562;28;19912;-75
2022/08/03 13:33:57;;;;;;;;;;;31.20;99.90;;;;;;5080200;28;20078;-79
2022/08/03 13:36:23;;;;;;;;;;;31.10;99.90;;;;;;5096830;28;19978;-76
2022/08/03 13:38:49;;;;;;;;;;;31.20;99.90;;;;;;5091157;28;20015;-77
2022/08/03 13:41:15;;;;;;;;;;;31.10;99.90;;;;;;5078800;28;19951;-76
2022/08/03 13:43:41;;;;;;;;;;;31.20;99.90;;;;;;5077426;28;19908;-77
2022/08/03 13:46:06;;;;;;;;;;;31.30;99.90;;;;;;5097875;28;20312;-78
2022/08/03 13:48:32;;;;;;;;;;;31.20;99.90;;;;;;5092467;28;19951;-77
2022/08/03 13:50:57;;;;;;;;;;;31.30;99.90;;;;;;5099258;28;19916;-76
2022/08/03 13:53:23;;;;;;;;;;;31.10;99.90;;;;;;5083766;28;20333;-78
2022/08/03 13:55:49;;;;;;;;;;;31.10;99.90;;;;;;5098452;28;20009;-78
2022/08/03 13:58:14;;;;;;;;;;;31.00;99.90;;;;;;5094832;28;19917;-76
2022/08/03 14:00:40;;;;;;;;;;;31.10;99.90;;;;;;5095894;28;20297;-77
2022/08/03 14:03:06;;;;;;;;;;;31.30;99.90;;;;;;5098364;28;19958;-77
2022/08/03 14:05:32;;;;;;;;;;;31.40;99.90;;;;;;5075685;28;19913;-77
2022/08/03 14:07:57;;;;;;;;;;;31.50;99.90;;;;;;5078129;28;19912;-77
2022/08/03 14:10:23;;;;;;;;;;;31.40;99.90;;;;;;5098307;28;19916;-78
2022/08/03 14:12:48;;;;;;;;;;;31.30;99.90;;;;;;5101850;28;19994;-77
2022/08/03 14:15:14;;;;;;;;;;;31.20;99.90;;;;;;5098734;28;20159;-76
2022/08/03 14:17:40;;;;;;;;;;;31.20;99.90;;;;;;5082485;28;20392;-79
2022/08/03 14:20:06;;;;;;;;;;;31.20;99.90;;;;;;5101260;28;19909;-78
2022/08/03 14:22:32;;;;;;;;;;;31.20;99.90;;;;;;5109686;28;19947;-76
2022/08/03 14:24:58;;;;;;;;;;;31.20;99.90;;;;;;5110681;28;19912;-78
2022/08/03 14:27:23;;;;;;;;;;;31.40;99.90;;;;;;5111348;28;19983;-77
2022/08/03 14:29:49;;;;;;;;;;;31.40;99.90;;;;;;5113357;28;20185;-77